Time;durP1;ratioP1;P1;durP2;ratioP2;P2;SDS_P1;SDS_P2;PMS_P1;PMS_P2;Temp;Humidity;BMP_temperature;BMP_pressure;BME280_temperature;BME280_humidity;BME280_pressure;Samples;Min_cycle;Max_cycle;Signal;HPM_P1;HPM_P2
2024/03/08 00:01:19;;;;;;;;;29.00;23.00;;;;;-3.62;83.32;101380.05;112555;244;39396;-53
2024/03/08 00:04:03;;;;;;;;;29.33;24.00;;;;;-3.62;83.36;101380.59;112346;242;162072;-54
2024/03/08 00:06:43;;;;;;;;;35.75;25.00;;;;;-3.63;83.53;101377.45;112511;244;39897;-53
2024/03/08 00:09:23;;;;;;;;;38.75;28.00;;;;;-3.64;83.63;101377.18;112369;241;162078;-53
2024/03/08 00:12:01;;;;;;;;;24.50;17.00;;;;;-3.65;83.71;101375.41;112717;243;41163;-53
2024/03/08 00:14:48;;;;;;;;;29.25;21.25;;;;;-3.64;83.62;101373.13;112591;243;162582;-53
2024/03/08 00:17:23;;;;;;;;;29.25;21.50;;;;;-3.66;83.66;101373.41;112555;243;40750;-52
2024/03/08 00:20:08;;;;;;;;;32.25;26.50;;;;;-3.70;83.71;101375.16;112832;243;39248;-53
2024/03/08 00:22:51;;;;;;;;;27.50;19.25;;;;;-3.72;83.68;101374.71;112477;243;39286;-50
2024/03/08 00:25:36;;;;;;;;;30.00;20.67;;;;;-3.73;83.61;101377.80;112779;243;40224;-50
2024/03/08 00:28:20;;;;;;;;;25.00;20.00;;;;;-3.79;83.73;101373.48;112419;242;161646;-51
2024/03/08 00:31:08;;;;;;;;;34.75;22.75;;;;;-3.84;83.78;101370.08;112848;243;40401;-51
2024/03/08 00:33:48;;;;;;;;;28.25;22.50;;;;;-3.89;83.90;101371.52;112569;241;161950;-53
2024/03/08 00:36:30;;;;;;;;;36.00;26.00;;;;;-3.92;83.98;101371.14;112732;243;39770;-54
2024/03/08 00:39:11;;;;;;;;;30.25;22.00;;;;;-3.95;84.10;101373.05;112286;241;161897;-52
2024/03/08 00:41:48;;;;;;;;;36.00;25.00;;;;;-3.95;84.05;101372.19;112745;243;40657;-52
2024/03/08 00:44:26;;;;;;;;;41.00;27.67;;;;;-3.89;84.14;101369.62;112622;241;162504;-50
2024/03/08 00:47:08;;;;;;;;;36.33;25.00;;;;;-3.85;84.07;101369.21;112640;243;40828;-50
2024/03/08 00:49:46;;;;;;;;;37.33;27.00;;;;;-3.85;84.18;101365.55;112849;243;41405;-52
2024/03/08 00:52:24;;;;;;;;;28.00;20.67;;;;;-3.88;84.42;101366.55;112352;243;162093;-53
2024/03/08 00:55:00;;;;;;;;;34.00;24.00;;;;;-3.90;84.40;101368.42;112792;243;38910;-50
2024/03/08 00:57:41;;;;;;;;;32.50;24.75;;;;;-3.91;84.26;101367.41;112310;243;161084;-51
2024/03/08 01:00:22;;;;;;;;;37.50;28.50;;;;;-3.94;84.32;101365.27;112797;243;39572;-50
2024/03/08 01:03:04;;;;;;;;;28.00;20.33;;;;;-3.99;84.34;101363.21;112542;241;161729;-53
2024/03/08 01:05:40;;;;;;;;;35.00;23.50;;;;;-4.05;84.43;101359.80;112647;243;39442;-53
2024/03/08 01:08:17;;;;;;;;;26.33;20.67;;;;;-4.06;84.46;101358.27;112671;241;161592;-53
2024/03/08 01:10:57;;;;;;;;;42.00;29.75;;;;;-4.04;84.41;101361.88;112466;243;39754;-53
2024/03/08 01:13:36;;;;;;;;;43.50;32.00;;;;;-4.03;84.46;101356.40;112818;243;40737;-54
2024/03/08 01:16:16;;;;;;;;;40.25;29.00;;;;;-4.04;84.53;101355.06;112340;241;161640;-54
2024/03/08 01:18:58;;;;;;;;;38.50;28.00;;;;;-4.07;84.66;101356.42;112812;243;39877;-53
2024/03/08 01:21:42;;;;;;;;;38.00;29.00;;;;;-4.10;84.69;101354.09;112220;242;161732;-53
2024/03/08 01:24:20;;;;;;;;;44.50;32.00;;;;;-4.10;84.82;101353.59;112759;243;40039;-50
2024/03/08 01:26:56;;;;;;;;;40.00;28.00;;;;;-4.10;84.86;101349.35;112532;243;162860;-51
2024/03/08 01:29:33;;;;;;;;;35.50;25.50;;;;;-4.10;84.87;101340.75;112445;243;39427;-50
2024/03/08 01:32:10;;;;;;;;;42.00;29.75;;;;;-4.15;84.98;101343.95;112475;243;41465;-50
2024/03/08 01:34:46;;;;;;;;;39.00;27.75;;;;;-4.21;85.15;101343.52;112429;244;39237;-50
2024/03/08 01:37:34;;;;;;;;;36.00;26.00;;;;;-4.24;85.14;101340.00;112456;244;39344;-50
2024/03/08 01:40:11;;;;;;;;;34.67;25.67;;;;;-4.29;85.18;101339.52;112358;241;161408;-54
2024/03/08 01:42:53;;;;;;;;;35.00;26.25;;;;;-4.34;85.28;101337.30;112832;243;39676;-53
2024/03/08 01:45:30;;;;;;;;;41.75;29.00;;;;;-4.39;85.34;101338.23;112466;241;162135;-54
2024/03/08 01:48:07;;;;;;;;;41.00;31.00;;;;;-4.43;85.40;101341.58;112452;244;39404;-53
2024/03/08 01:50:40;;;;;;;;;38.33;26.33;;;;;-4.44;85.42;101339.36;112315;242;162419;-54
2024/03/08 01:53:19;;;;;;;;;50.75;34.00;;;;;-4.45;85.60;101338.89;112393;244;39766;-52
2024/03/08 01:55:57;;;;;;;;;39.00;28.00;;;;;-4.46;85.75;101335.39;112429;244;39632;-52
2024/03/08 01:58:38;;;;;;;;;40.75;28.75;;;;;-4.46;85.75;101336.13;112254;244;161767;-53
2024/03/08 02:01:20;;;;;;;;;46.00;30.00;;;;;-4.47;85.82;101335.11;112389;244;39753;-53
2024/03/08 02:03:58;;;;;;;;;43.00;30.00;;;;;-4.46;85.83;101333.12;112284;241;162096;-52
2024/03/08 02:06:35;;;;;;;;;37.00;28.00;;;;;-4.48;85.92;101331.83;112776;243;39619;-53
2024/03/08 02:09:17;;;;;;;;;43.50;29.50;;;;;-4.50;86.01;101330.16;112511;241;162649;-50
2024/03/08 02:11:58;;;;;;;;;36.75;26.00;;;;;-4.51;85.99;101323.85;112613;243;39518;-50
2024/03/08 02:14:34;;;;;;;;;42.75;29.75;;;;;-4.52;86.09;101324.96;112603;242;161985;-49
2024/03/08 02:17:11;;;;;;;;;46.00;31.00;;;;;-4.51;86.13;101326.33;112375;244;39332;-50
2024/03/08 02:19:48;;;;;;;;;39.00;27.33;;;;;-4.49;86.09;101325.70;112461;244;39618;-50
2024/03/08 02:22:27;;;;;;;;;37.00;28.00;;;;;-4.46;86.02;101323.80;112243;241;161163;-50
2024/03/08 02:25:07;;;;;;;;;48.50;30.50;;;;;-4.45;86.03;101319.20;112510;244;40145;-49
2024/03/08 02:27:43;;;;;;;;;43.50;28.25;;;;;-4.49;85.92;101317.30;112303;241;160892;-52
2024/03/08 02:30:18;;;;;;;;;38.75;28.00;;;;;-4.55;85.95;101317.22;112753;243;39911;-53
2024/03/08 02:32:56;;;;;;;;;27.50;21.75;;;;;-4.60;86.00;101314.80;112599;241;161624;-52
2024/03/08 02:35:33;;;;;;;;;35.67;25.33;;;;;-4.65;86.10;101318.39;112629;243;39490;-52
2024/03/08 02:38:17;;;;;;;;;39.75;28.25;;;;;-4.70;86.22;101320.20;112810;243;39658;-54
2024/03/08 02:40:56;;;;;;;;;38.00;30.00;;;;;-4.73;86.25;101313.31;112574;243;39248;-53
2024/03/08 02:43:34;;;;;;;;;42.00;28.75;;;;;-4.74;86.28;101315.98;112837;243;40293;-49
2024/03/08 02:46:10;;;;;;;;;39.50;27.00;;;;;-4.74;86.38;101313.70;112414;241;162202;-50
2024/03/08 02:48:50;;;;;;;;;44.67;33.00;;;;;-4.76;86.42;101311.14;112838;243;39511;-49
2024/03/08 02:51:27;;;;;;;;;41.00;29.00;;;;;-4.77;86.49;101311.89;112465;240;161805;-50
2024/03/08 02:54:08;;;;;;;;;47.00;32.00;;;;;-4.78;86.50;101308.41;112685;243;39968;-50
2024/03/08 02:56:50;;;;;;;;;41.50;31.00;;;;;-4.76;86.54;101309.21;112580;243;162764;-49
2024/03/08 02:59:32;;;;;;;;;35.33;28.67;;;;;-4.73;86.54;101308.92;112585;243;39210;-54
2024/03/08 03:02:10;;;;;;;;;41.00;28.00;;;;;-4.73;86.71;101306.48;112785;243;39882;-54
2024/03/08 03:04:49;;;;;;;;;39.25;28.00;;;;;-4.75;86.71;101304.61;112456;243;40958;-54
2024/03/08 03:07:30;;;;;;;;;44.00;31.25;;;;;-4.79;86.74;101304.62;112793;243;40914;-54
2024/03/08 03:10:08;;;;;;;;;40.50;29.00;;;;;-4.84;86.76;101304.11;112372;243;161732;-54
2024/03/08 03:12:45;;;;;;;;;23.00;19.00;;;;;-4.88;86.82;101304.66;112602;244;38980;-53
2024/03/08 03:15:20;;;;;;;;;31.00;23.00;;;;;-4.91;86.82;101305.72;112384;241;162257;-53
2024/03/08 03:18:01;;;;;;;;;43.00;31.00;;;;;-4.96;86.92;101304.17;112492;244;39886;-54
2024/03/08 03:20:44;;;;;;;;;45.00;33.00;;;;;-4.99;86.96;101306.27;112405;241;162351;-54
2024/03/08 03:23:28;;;;;;;;;42.67;29.67;;;;;-5.03;86.99;101308.71;112555;244;41032;-53
2024/03/08 03:26:07;;;;;;;;;34.25;27.00;;;;;-5.03;87.12;101307.48;112819;243;39300;-53
2024/03/08 03:28:49;;;;;;;;;47.00;33.00;;;;;-5.00;87.14;101304.55;112464;242;40689;-51
2024/03/08 03:31:27;;;;;;;;;37.00;27.50;;;;;-4.97;87.14;101302.65;112405;244;38983;-52
2024/03/08 03:34:08;;;;;;;;;43.50;30.50;;;;;-4.95;87.10;101300.80;112258;241;161931;-52
2024/03/08 03:36:47;;;;;;;;;47.00;31.00;;;;;-4.90;87.08;101304.59;112514;244;39337;-51
2024/03/08 03:39:23;;;;;;;;;34.75;27.00;;;;;-4.89;87.08;101302.24;112342;242;161588;-49
2024/03/08 03:42:03;;;;;;;;;37.00;29.00;;;;;-4.88;87.16;101300.83;112398;244;39589;-49
2024/03/08 03:44:45;;;;;;;;;33.33;24.00;;;;;-4.83;87.07;101300.77;112342;241;161411;-53
2024/03/08 03:47:26;;;;;;;;;37.00;26.00;;;;;-4.82;87.06;101297.02;112508;243;41073;-53
2024/03/08 03:50:09;;;;;;;;;31.00;21.67;;;;;-4.85;87.14;101299.10;112399;244;39995;-49
2024/03/08 03:52:48;;;;;;;;;24.25;18.75;;;;;-4.88;87.36;101295.37;112367;243;39777;-53
2024/03/08 03:55:22;;;;;;;;;39.00;28.00;;;;;-4.91;87.38;101292.34;112417;243;39848;-51
2024/03/08 03:58:02;;;;;;;;;33.50;24.75;;;;;-4.94;87.45;101291.27;112216;244;162421;-53
2024/03/08 04:00:46;;;;;;;;;37.67;27.00;;;;;-4.98;87.49;101289.67;112433;244;40768;-53
2024/03/08 04:03:26;;;;;;;;;37.50;26.25;;;;;-5.00;87.55;101291.88;112322;243;163415;-52
2024/03/08 04:06:06;;;;;;;;;33.00;23.67;;;;;-4.99;87.57;101293.42;112388;244;39872;-52
2024/03/08 04:08:46;;;;;;;;;38.00;26.00;;;;;-5.00;87.64;101288.04;112300;242;163407;-53
2024/03/08 04:11:28;;;;;;;;;35.00;25.00;;;;;-5.00;87.69;101289.05;112385;244;39945;-53
2024/03/08 04:14:02;;;;;;;;;33.00;24.50;;;;;-5.01;87.78;101283.34;112441;244;38950;-49
2024/03/08 04:16:38;;;;;;;;;40.00;28.00;;;;;-5.02;87.81;101285.81;112302;242;162349;-49
2024/03/08 04:19:16;;;;;;;;;29.67;22.67;;;;;-5.00;87.73;101283.31;112465;244;41115;-49
2024/03/08 04:21:59;;;;;;;;;32.50;24.00;;;;;-5.02;87.74;101283.20;112282;243;161139;-49
2024/03/08 04:24:37;;;;;;;;;27.50;20.75;;;;;-5.06;87.77;101283.54;112406;244;40668;-51
2024/03/08 04:27:32;;;;;;;;;39.00;23.75;;;;;-5.10;87.89;101285.48;112279;241;161332;-51
2024/03/08 04:30:11;;;;;;;;;27.50;18.50;;;;;-5.14;87.87;101284.13;112384;244;40375;-49
2024/03/08 04:32:50;;;;;;;;;27.00;21.00;;;;;-5.19;87.96;101284.30;112284;241;161856;-51
2024/03/08 04:35:29;;;;;;;;;28.00;20.50;;;;;-5.23;88.04;101285.93;112388;244;39551;-51
2024/03/08 04:38:08;;;;;;;;;26.25;20.75;;;;;-5.27;88.04;101283.11;112403;244;40253;-51
2024/03/08 04:40:46;;;;;;;;;32.67;23.00;;;;;-5.27;87.98;101282.07;112269;242;162372;-51
2024/03/08 04:43:30;;;;;;;;;42.75;30.00;;;;;-5.28;88.11;101283.17;112409;244;39323;-52
2024/03/08 04:46:13;;;;;;;;;33.25;23.75;;;;;-5.31;88.19;101278.55;112396;241;161956;-51
2024/03/08 04:48:52;;;;;;;;;39.25;29.50;;;;;-5.30;88.25;101277.81;112471;243;40254;-49
2024/03/08 04:51:32;;;;;;;;;42.25;28.00;;;;;-5.28;88.29;101278.61;112279;241;162220;-49
2024/03/08 04:54:08;;;;;;;;;29.75;23.00;;;;;-5.25;88.38;101278.98;112398;244;40919;-53
2024/03/08 04:56:43;;;;;;;;;30.00;21.00;;;;;-5.26;88.33;101281.47;112345;241;161278;-53
2024/03/08 04:59:20;;;;;;;;;43.50;33.00;;;;;-5.26;88.27;101276.73;112585;243;39143;-50
2024/03/08 05:01:57;;;;;;;;;30.75;24.75;;;;;-5.25;88.28;101283.02;112423;244;39266;-49
2024/03/08 05:04:33;;;;;;;;;28.00;21.00;;;;;-5.26;88.28;101281.30;112273;241;161399;-53
2024/03/08 05:07:08;;;;;;;;;27.00;19.67;;;;;-5.28;88.34;101286.69;112421;244;39319;-53
2024/03/08 05:09:51;;;;;;;;;20.67;17.00;;;;;-5.32;88.39;101281.90;112337;241;161087;-49
2024/03/08 05:12:33;;;;;;;;;27.00;20.50;;;;;-5.34;88.35;101284.66;112438;243;41343;-48
2024/03/08 05:15:11;;;;;;;;;33.00;23.00;;;;;-5.34;88.38;101284.30;112242;242;162161;-53
2024/03/08 05:17:51;;;;;;;;;33.00;26.00;;;;;-5.33;88.38;101286.70;112406;244;39955;-52
2024/03/08 05:20:37;;;;;;;;;32.33;22.67;;;;;-5.30;88.55;101288.32;112258;241;162360;-54
2024/03/08 05:23:15;;;;;;;;;32.00;24.00;;;;;-5.21;88.66;101287.09;112470;243;41546;-51
2024/03/08 05:25:52;;;;;;;;;32.50;23.25;;;;;-5.15;88.69;101283.29;112432;244;40849;-51
2024/03/08 05:28:30;;;;;;;;;33.00;25.50;;;;;-5.10;88.86;101282.69;112264;242;162006;-53
2024/03/08 05:31:10;;;;;;;;;36.00;26.00;;;;;-5.05;88.99;101279.63;112388;244;39214;-53
2024/03/08 05:33:45;;;;;;;;;40.33;29.00;;;;;-4.96;88.96;101282.23;112287;242;161880;-53
2024/03/08 05:36:27;;;;;;;;;38.00;25.67;;;;;-4.86;89.03;101281.77;112365;244;40544;-53
2024/03/08 05:39:13;;;;;;;;;39.25;27.50;;;;;-4.74;89.02;101281.53;112323;241;161977;-49
2024/03/08 05:41:49;;;;;;;;;35.00;25.00;;;;;-4.64;89.03;101284.95;112485;243;39735;-49
2024/03/08 05:44:28;;;;;;;;;29.00;24.00;;;;;-4.60;89.17;101285.80;112443;244;41046;-54
2024/03/08 05:47:15;;;;;;;;;28.50;19.75;;;;;-4.53;89.29;101285.81;112381;244;40937;-54
2024/03/08 05:49:54;;;;;;;;;38.25;26.00;;;;;-4.40;89.26;101284.30;112425;243;39869;-51
2024/03/08 05:52:35;;;;;;;;;29.50;23.00;;;;;-4.05;89.20;101278.91;112256;241;162256;-51
2024/03/08 05:55:14;;;;;;;;;43.67;30.00;;;;;-3.69;89.21;101273.39;112401;244;40988;-54
2024/03/08 05:57:54;;;;;;;;;35.50;25.25;;;;;-3.56;89.22;101273.98;112278;240;162024;-50
2024/03/08 06:00:32;;;;;;;;;40.25;30.00;;;;;-3.45;89.09;101273.38;112415;244;39954;-50
2024/03/08 06:03:09;;;;;;;;;47.00;31.00;;;;;-3.35;89.21;101274.05;112329;242;163345;-51
2024/03/08 06:05:47;;;;;;;;;48.00;33.00;;;;;-2.94;88.95;101267.66;112416;244;39618;-53
2024/03/08 06:08:29;;;;;;;;;40.00;31.00;;;;;-1.68;88.57;101268.92;112396;243;39851;-52
2024/03/08 06:11:11;;;;;;;;;53.00;36.50;;;;;-0.01;88.38;101264.77;112358;244;39554;-53
2024/03/08 06:13:49;;;;;;;;;47.00;35.67;;;;;1.03;87.47;101261.52;112411;243;39526;-52
2024/03/08 06:16:25;;;;;;;;;57.00;40.00;;;;;1.03;86.47;101263.46;112332;241;161745;-52
2024/03/08 06:19:13;;;;;;;;;60.75;40.00;;;;;0.85;85.78;101264.19;112813;243;39921;-53
2024/03/08 06:21:55;;;;;;;;;52.67;37.00;;;;;1.18;85.34;101267.36;112468;242;160766;-53
2024/03/08 06:24:40;;;;;;;;;45.50;33.50;;;;;0.86;84.87;101267.63;112439;244;40421;-51
2024/03/08 06:27:17;;;;;;;;;53.33;38.33;;;;;0.36;84.69;101269.89;112279;244;161296;-51
2024/03/08 06:29:55;;;;;;;;;55.00;38.00;;;;;0.23;85.10;101266.88;112475;243;40663;-53
2024/03/08 06:32:38;;;;;;;;;51.50;36.50;;;;;0.85;85.18;101266.86;112263;241;161049;-53
2024/03/08 06:35:15;;;;;;;;;54.75;38.00;;;;;0.81;84.70;101265.02;112417;243;40393;-53
2024/03/08 06:37:53;;;;;;;;;50.00;36.00;;;;;0.92;85.10;101267.05;112433;244;40160;-53
2024/03/08 06:40:40;;;;;;;;;49.50;37.00;;;;;1.19;85.42;101266.19;111829;242;548716;-53
2024/03/08 06:43:33;;;;;;;;;57.50;41.75;;;;;1.66;84.92;101267.41;112434;244;39243;-50
2024/03/08 06:46:12;;;;;;;;;45.00;33.00;;;;;2.15;84.53;101266.91;112346;241;161459;-49
2024/03/08 06:48:50;;;;;;;;;55.00;40.00;;;;;2.64;84.08;101261.91;112450;243;39406;-49
2024/03/08 06:51:31;;;;;;;;;57.00;42.00;;;;;3.56;84.43;101260.46;112273;241;161202;-49
2024/03/08 06:54:08;;;;;;;;;59.75;44.00;;;;;4.26;83.79;101258.79;112394;244;41013;-52
2024/03/08 06:56:48;;;;;;;;;59.00;42.75;;;;;4.48;82.72;101261.20;112261;240;161527;-52
2024/03/08 06:59:27;;;;;;;;;64.75;46.75;;;;;4.95;81.92;101257.55;112439;243;40282;-53
2024/03/08 07:02:09;;;;;;;;;72.50;49.00;;;;;5.04;81.34;101256.68;112413;244;40088;-53
2024/03/08 07:04:46;;;;;;;;;81.67;58.33;;;;;5.66;80.64;101257.42;112299;241;161260;-50
2024/03/08 07:07:23;;;;;;;;;64.67;46.00;;;;;5.87;79.85;101255.52;112439;244;41094;-50
2024/03/08 07:10:03;;;;;;;;;65.25;48.00;;;;;5.58;79.09;101255.33;112375;241;160741;-50
2024/03/08 07:12:42;;;;;;;;;70.00;50.00;;;;;5.08;79.11;101251.33;112618;243;40096;-51
2024/03/08 07:15:19;;;;;;;;;63.00;46.00;;;;;5.02;79.63;101252.17;112491;241;160746;-49
2024/03/08 07:18:03;;;;;;;;;64.75;46.75;;;;;5.42;79.34;101250.83;112512;244;39665;-49
2024/03/08 07:20:43;;;;;;;;;77.25;57.25;;;;;5.63;78.86;101250.95;112415;241;162166;-49
2024/03/08 07:26:16;;;;;;;;;76.33;57.67;;;;;6.52;78.10;101245.56;112502;244;39101;-50
2024/03/08 07:28:52;;;;;;;;;67.75;47.50;;;;;5.87;77.67;101248.16;112276;243;160585;-54
2024/03/08 07:31:44;;;;;;;;;61.00;45.00;;;;;5.64;77.88;101247.02;112605;244;39432;-51
2024/03/08 07:34:25;;;;;;;;;61.50;44.75;;;;;5.85;77.81;101243.53;112319;241;160890;-51
2024/03/08 07:37:02;;;;;;;;;54.75;39.75;;;;;6.25;77.45;101244.36;112473;244;39781;-51
2024/03/08 07:39:40;;;;;;;;;67.00;48.00;;;;;6.79;77.10;101238.37;112308;242;160939;-51
2024/03/08 07:42:20;;;;;;;;;64.00;47.00;;;;;7.59;76.73;101241.36;112560;244;39557;-52
2024/03/08 07:45:07;;;;;;;;;59.25;43.50;;;;;8.22;76.10;101237.21;112432;241;161267;-52
2024/03/08 07:47:47;;;;;;;;;58.25;42.50;;;;;8.81;75.41;101236.73;112454;243;40230;-50
2024/03/08 07:50:28;;;;;;;;;55.00;40.00;;;;;9.77;74.24;101234.81;112559;244;40458;-51
2024/03/08 07:53:06;;;;;;;;;55.67;38.67;;;;;10.53;72.92;101232.98;112447;244;39535;-52
2024/03/08 07:55:45;;;;;;;;;59.50;43.75;;;;;10.80;72.30;101231.75;112546;244;38959;-53
2024/03/08 07:58:24;;;;;;;;;60.33;44.33;;;;;11.55;71.57;101225.19;112329;242;161377;-51
2024/03/08 08:01:06;;;;;;;;;56.50;43.50;;;;;12.66;70.03;101221.35;112483;244;40114;-51
2024/03/08 08:03:42;;;;;;;;;57.75;41.00;;;;;13.79;68.06;101222.64;112327;242;161370;-50
2024/03/08 08:06:15;;;;;;;;;57.50;42.25;;;;;14.63;65.70;101216.77;112509;244;39978;-51
2024/03/08 08:08:50;;;;;;;;;56.75;42.25;;;;;15.49;65.11;101210.77;112397;242;162097;-52
2024/03/08 08:11:28;;;;;;;;;54.33;39.00;;;;;16.20;62.78;101214.17;112376;244;39987;-51
2024/03/08 08:14:05;;;;;;;;;54.75;42.50;;;;;16.61;60.96;101210.98;112534;244;39631;-51
2024/03/08 08:16:45;;;;;;;;;51.00;40.00;;;;;16.86;59.93;101211.21;112314;241;161173;-51
2024/03/08 08:19:26;;;;;;;;;48.50;38.00;;;;;17.21;57.67;101210.63;112786;243;39641;-51
2024/03/08 08:22:08;;;;;;;;;44.25;34.00;;;;;17.56;57.07;101206.48;112442;242;161294;-51
2024/03/08 08:24:49;;;;;;;;;42.25;32.25;;;;;17.70;55.48;101206.90;112509;244;39391;-54
2024/03/08 08:27:29;;;;;;;;;49.50;37.50;;;;;17.62;54.00;101200.21;112355;242;161279;-54
2024/03/08 08:30:11;;;;;;;;;56.00;42.00;;;;;17.78;53.05;101202.80;112415;244;39887;-53
2024/03/08 08:32:48;;;;;;;;;47.50;37.00;;;;;17.88;52.73;101198.89;112345;242;161883;-52
2024/03/08 08:35:31;;;;;;;;;39.00;31.00;;;;;18.12;51.75;101193.00;112423;244;39931;-52
2024/03/08 08:38:11;;;;;;;;;32.00;25.00;;;;;18.07;50.01;101194.71;112443;243;40666;-54
2024/03/08 08:40:48;;;;;;;;;32.00;25.00;;;;;17.74;49.16;101194.73;112325;242;161282;-54
2024/03/08 08:43:25;;;;;;;;;38.00;29.50;;;;;16.96;48.86;101192.22;112425;245;39395;-52
2024/03/08 08:46:03;;;;;;;;;47.00;36.00;;;;;16.91;49.17;101191.14;112274;242;161365;-52
2024/03/08 08:48:47;;;;;;;;;31.00;24.00;;;;;16.52;47.47;101193.63;112441;244;39313;-52
2024/03/08 08:51:28;;;;;;;;;33.00;24.00;;;;;16.21;47.41;101190.56;112354;241;162454;-51
2024/03/08 08:54:11;;;;;;;;;40.00;31.00;;;;;16.34;46.63;101188.58;112714;243;41256;-53
2024/03/08 08:56:53;;;;;;;;;42.00;32.00;;;;;16.02;45.95;101186.08;112597;243;161660;-53
2024/03/08 08:59:33;;;;;;;;;32.67;26.00;;;;;16.34;45.89;101182.73;112373;244;40366;-52
2024/03/08 09:02:20;;;;;;;;;47.00;36.00;;;;;15.84;46.00;101183.05;112437;244;39325;-52
2024/03/08 09:05:02;;;;;;;;;37.00;28.00;;;;;15.46;45.11;101182.11;112364;244;39112;-52
2024/03/08 09:07:44;;;;;;;;;45.00;35.00;;;;;15.70;44.67;101181.32;112426;244;40191;-53
2024/03/08 09:10:23;;;;;;;;;34.50;28.00;;;;;15.97;44.83;101178.93;112257;242;162643;-53
2024/03/08 09:13:06;;;;;;;;;39.00;30.00;;;;;15.57;44.78;101182.54;112388;244;39581;-53
2024/03/08 09:15:46;;;;;;;;;32.00;25.00;;;;;15.39;44.11;101181.60;112320;241;161640;-53
2024/03/08 09:18:23;;;;;;;;;30.67;24.00;;;;;15.39;44.05;101178.14;112720;243;40655;-54
2024/03/08 09:21:02;;;;;;;;;31.25;25.00;;;;;15.72;44.39;101176.92;112644;241;161615;-54
2024/03/08 09:23:43;;;;;;;;;35.00;27.25;;;;;15.87;43.82;101173.42;112440;244;40135;-54
2024/03/08 09:26:26;;;;;;;;;37.00;29.00;;;;;16.04;42.99;101174.14;112451;244;39895;-56
2024/03/08 09:29:06;;;;;;;;;30.00;24.33;;;;;15.79;43.41;101173.77;112430;244;41003;-51
2024/03/08 09:31:46;;;;;;;;;31.00;22.67;;;;;15.70;43.45;101171.88;112515;244;39423;-52
2024/03/08 09:34:22;;;;;;;;;22.00;19.00;;;;;16.62;42.52;101167.67;112340;242;186146;-54
2024/03/08 09:36:59;;;;;;;;;25.25;18.50;;;;;16.78;41.49;101161.69;112411;244;40338;-54
2024/03/08 09:39:40;;;;;;;;;23.50;18.75;;;;;16.90;41.17;101161.54;112258;242;161309;-53
2024/03/08 09:42:16;;;;;;;;;25.00;20.50;;;;;16.86;41.30;101161.00;112411;244;40695;-52
2024/03/08 09:44:59;;;;;;;;;37.00;28.00;;;;;16.90;41.14;101152.89;112295;242;161910;-51
2024/03/08 09:47:38;;;;;;;;;30.00;23.00;;;;;16.83;40.76;101156.56;112396;244;39438;-51
2024/03/08 09:50:17;;;;;;;;;28.67;22.00;;;;;16.64;40.40;101154.67;112389;244;39550;-54
2024/03/08 09:52:58;;;;;;;;;32.00;23.00;;;;;16.37;40.25;101160.52;112251;244;160942;-51
2024/03/08 09:55:37;;;;;;;;;34.00;27.00;;;;;16.34;40.15;101155.19;112395;244;39917;-50
2024/03/08 09:58:36;;;;;;;;;35.75;27.00;;;;;16.01;39.43;101161.29;112281;242;161316;-53
2024/03/08 10:01:14;;;;;;;;;28.50;23.50;;;;;15.63;39.80;101155.69;112382;244;40734;-53
2024/03/08 10:03:54;;;;;;;;;34.25;25.75;;;;;15.86;40.13;101155.10;112292;244;161232;-51
2024/03/08 10:06:36;;;;;;;;;38.67;30.00;;;;;15.08;40.08;101152.09;112445;244;39730;-50
2024/03/08 10:09:11;;;;;;;;;32.00;25.00;;;;;14.49;40.06;101152.86;112334;242;162022;-52
2024/03/08 10:11:54;;;;;;;;;34.25;26.00;;;;;13.73;40.45;101159.38;112616;243;40199;-52
2024/03/08 10:14:42;;;;;;;;;33.33;26.00;;;;;13.12;40.37;101160.66;112816;243;39866;-50
2024/03/08 10:17:32;;;;;;;;;33.00;25.25;;;;;12.64;40.82;101159.14;112441;244;39061;-49
2024/03/08 10:20:16;;;;;;;;;42.00;31.00;;;;;12.28;41.26;101157.17;112429;244;39654;-52
2024/03/08 10:22:56;;;;;;;;;34.50;27.00;;;;;11.97;41.24;101152.43;112312;241;162801;-50
2024/03/08 10:25:35;;;;;;;;;31.00;24.00;;;;;11.61;41.65;101159.02;112433;244;39509;-51
2024/03/08 10:28:09;;;;;;;;;29.75;23.00;;;;;11.13;41.25;101153.31;112316;242;162264;-52
2024/03/08 10:30:51;;;;;;;;;31.50;24.00;;;;;11.11;42.14;101150.02;112401;244;39865;-52
2024/03/08 10:33:30;;;;;;;;;33.25;24.00;;;;;11.12;41.94;101149.09;112273;242;161745;-53
2024/03/08 10:36:07;;;;;;;;;32.00;25.00;;;;;10.57;42.14;101145.58;112371;244;39529;-53
2024/03/08 10:38:47;;;;;;;;;34.00;26.00;;;;;10.33;42.21;101147.03;112390;244;42822;-50
2024/03/08 10:41:25;;;;;;;;;30.50;23.25;;;;;10.20;42.53;101143.65;112360;244;40180;-51
2024/03/08 10:44:25;;;;;;;;;30.50;23.00;;;;;10.06;42.70;101146.39;112413;244;39318;-53
2024/03/08 10:47:19;;;;;;;;;35.25;25.00;;;;;10.24;43.04;101140.31;112323;240;161143;-54
2024/03/08 10:50:07;;;;;;;;;21.33;17.33;;;;;10.12;42.40;101139.80;112791;243;40332;-52
2024/03/08 10:52:48;;;;;;;;;23.75;18.75;;;;;9.94;42.55;101137.61;112365;242;161496;-51
2024/03/08 10:55:26;;;;;;;;;27.67;20.33;;;;;9.74;42.51;101139.29;112813;243;39901;-50
2024/03/08 10:58:07;;;;;;;;;21.33;16.00;;;;;9.60;42.68;101141.39;112491;242;161358;-53
2024/03/08 11:00:46;;;;;;;;;19.75;16.25;;;;;9.55;42.83;101137.05;112415;244;39320;-54
2024/03/08 11:03:48;;;;;;;;;24.00;18.00;;;;;9.62;42.68;101134.69;112360;242;161266;-53
2024/03/08 11:06:32;;;;;;;;;16.75;13.00;;;;;9.42;43.06;101135.57;112459;244;40844;-54
2024/03/08 11:09:17;;;;;;;;;24.00;19.00;;;;;9.60;42.89;101128.77;112412;242;161471;-51
2024/03/08 11:12:16;;;;;;;;;22.67;17.67;;;;;9.83;42.66;101120.45;112478;244;40806;-51
2024/03/08 11:14:57;;;;;;;;;27.00;18.00;;;;;9.88;42.69;101115.78;112420;242;161484;-50
2024/03/08 11:17:48;;;;;;;;;28.50;19.50;;;;;9.88;42.80;101115.94;112437;245;40078;-49
2024/03/08 11:20:29;;;;;;;;;28.00;20.00;;;;;9.90;42.86;101116.98;112421;244;40409;-50
2024/03/08 11:23:23;;;;;;;;;23.00;19.00;;;;;9.69;42.86;101122.17;112277;242;160961;-52
2024/03/08 11:26:05;;;;;;;;;22.25;17.25;;;;;9.37;42.70;101119.52;112515;244;40059;-52
2024/03/08 11:28:48;;;;;;;;;28.00;20.67;;;;;9.21;43.06;101118.28;112312;243;161125;-53
2024/03/08 11:31:30;;;;;;;;;23.00;17.25;;;;;9.24;43.16;101111.45;112800;243;40662;-53
2024/03/08 11:34:18;;;;;;;;;27.00;21.00;;;;;9.25;43.37;101107.55;112462;242;161028;-53
2024/03/08 11:37:02;;;;;;;;;21.75;17.00;;;;;9.17;43.35;101106.47;112534;244;40201;-53
2024/03/08 11:39:38;;;;;;;;;20.50;16.25;;;;;9.24;43.12;101104.78;112345;242;161142;-54
2024/03/08 11:42:13;;;;;;;;;26.00;20.00;;;;;9.21;42.84;101102.73;112382;244;39258;-54
2024/03/08 11:44:47;;;;;;;;;23.00;14.00;;;;;9.09;42.56;101098.02;112283;244;161334;-51
2024/03/08 11:47:25;;;;;;;;;18.67;15.33;;;;;9.12;42.52;101092.63;112440;244;41475;-50
2024/03/08 11:50:03;;;;;;;;;15.67;13.00;;;;;9.14;42.33;101095.30;112571;244;39008;-49
2024/03/08 11:52:42;;;;;;;;;18.00;13.67;;;;;9.08;42.06;101093.09;112335;242;161077;-51
2024/03/08 11:55:20;;;;;;;;;18.50;14.25;;;;;9.10;42.10;101090.91;112470;244;40980;-52
2024/03/08 11:58:11;;;;;;;;;15.00;12.75;;;;;9.06;41.73;101086.79;112331;242;161121;-51
2024/03/08 12:01:04;;;;;;;;;18.00;12.75;;;;;9.06;42.05;101085.23;112544;244;39341;-50
2024/03/08 12:03:47;;;;;;;;;14.75;11.75;;;;;9.13;42.05;101079.43;112301;242;161178;-50
2024/03/08 12:06:27;;;;;;;;;14.50;13.00;;;;;9.13;41.74;101078.66;112403;244;39650;-51
2024/03/08 12:09:09;;;;;;;;;19.25;15.75;;;;;8.95;42.59;101070.74;112264;242;161267;-54